Portada
METAR-TAF:

METAR-TAF

Aeropuertos :

Aeropuerto Internacional Roman Tmetuchl

Koror, Babeldaob, Palaos

latitud: 07-22N, longitud: 134-32E, altitud: 54 m

Observación

El informe se hizo hace 1 hora y 5 minutos, a las 14:50 UTC
Viento 5 kt del oeste
Temperatura 27°C
Humedad 89%
Presión 1011 hPa
Visibilidad: 22.5 km
Nubes dispersas a una altura de 1600 ft
Cielo nuboso a una altura de 11000 ft
Cielo nuboso a una altura de 29000 ft

METAR: PTRO 241450Z 27005KT 14SM SCT016 BKN110 BKN290 27/25 A2985

Hora: 00:55 (15:55 UTC)

Pronóstico

El informe se hizo hace 4 horas y 35 minutos, a las 11:20 UTC
Pronóstico válido del 24 a las 12 UTC al 25 a las 12 UTC
Viento 9 kt del suroeste
Visibilidad: 10 km
Nubes dispersas a una altura de 1600 ft
Cielo nuboso a una altura de 12000 ft
chaparrones en las proximidades

TAF: PTRO 241120Z 2412/2512 23009KT P6SM VCSH SCT016 BKN120

Observaciones y pronósticos meteorológicos de más de 4000 aeropuertos (mensajes METAR y TAF).

Los puntos amarillos y rojos representan las estaciones disponibles.

Ponga el ratón en el punto deseado para ver el nombre de la estación.

Haga clic para ver las observaciones y los pronósticos meteorológicos.

Para cambiar el mapa : haga clic en los botones verdes con una cruz de color negro para hacer un zoom, en el botón verde con un guión para alejar o en las flechas verdes para mapas adyacentes.


METAR-TAF: